Time;durP1;ratioP1;P1;durP2;ratioP2;P2;SDS_P1;SDS_P2;PMS_P1;PMS_P2;Temp;Humidity;BMP_temperature;BMP_pressure;BME280_temperature;BME280_humidity;BME280_pressure;Samples;Min_cycle;Max_cycle;Signal;HPM_P1;HPM_P2
2021/07/02 00:00:41;;;;;;;5.38;4.88;;;;;;;;;;4929186;29;20510;-80
2021/07/02 00:03:07;;;;;;;5.82;5.13;;;;;;;;;;4929588;29;20082;-82
2021/07/02 00:05:33;;;;;;;7.28;5.57;;;;;;;;;;4929901;28;20133;-82
2021/07/02 00:08:00;;;;;;;6.65;5.13;;;;;;;;;;4927851;28;20058;-82
2021/07/02 00:10:26;;;;;;;5.90;5.00;;;;;;;;;;4931252;29;20483;-81
2021/07/02 00:12:53;;;;;;;5.90;5.30;;;;;;;;;;4926624;28;20071;-82
2021/07/02 00:15:19;;;;;;;6.75;5.78;;;;;;;;;;4926792;28;20063;-82
2021/07/02 00:17:45;;;;;;;5.53;4.95;;;;;;;;;;4928040;28;20489;-82
2021/07/02 00:20:12;;;;;;;5.60;5.10;;;;;;;;;;4931683;28;20062;-82
2021/07/02 00:22:39;;;;;;;8.45;5.38;;;;;;;;;;4943150;28;20078;-81
2021/07/02 00:25:06;;;;;;;6.05;5.40;;;;;;;;;;4930720;28;20060;-82
2021/07/02 00:27:32;;;;;;;6.88;5.55;;;;;;;;;;4930795;28;20062;-82
2021/07/02 00:29:59;;;;;;;6.53;5.35;;;;;;;;;;4929610;29;20063;-83
2021/07/02 00:32:25;;;;;;;5.85;5.25;;;;;;;;;;4929946;28;20070;-82
2021/07/02 00:34:53;;;;;;;7.63;5.75;;;;;;;;;;4931401;28;20059;-82
2021/07/02 00:37:19;;;;;;;6.05;5.13;;;;;;;;;;4929510;29;20523;-83
2021/07/02 00:39:45;;;;;;;6.20;5.60;;;;;;;;;;4944870;28;20122;-84
2021/07/02 00:42:12;;;;;;;6.15;5.55;;;;;;;;;;4926000;28;20059;-82
2021/07/02 00:44:42;;;;;;;5.88;5.38;;;;;;;;;;4926508;28;20079;-79
2021/07/02 00:47:09;;;;;;;6.20;5.60;;;;;;;;;;4924456;28;20051;-82
2021/07/02 00:49:35;;;;;;;7.53;5.93;;;;;;;;;;4930162;28;20622;-82
2021/07/02 00:52:04;;;;;;;6.28;5.38;;;;;;;;;;4928544;29;20059;-81
2021/07/02 00:54:30;;;;;;;6.22;5.63;;;;;;;;;;4929934;28;20087;-82
2021/07/02 00:56:57;;;;;;;6.18;5.57;;;;;;;;;;4922983;28;20082;-82
2021/07/02 00:59:23;;;;;;;7.75;5.97;;;;;;;;;;4926995;28;20059;-83
2021/07/02 01:01:50;;;;;;;6.50;5.90;;;;;;;;;;4928362;28;20059;-83
2021/07/02 01:04:16;;;;;;;8.45;6.30;;;;;;;;;;4928900;28;20075;-83
2021/07/02 01:06:42;;;;;;;6.80;6.13;;;;;;;;;;4929364;28;20059;-83
2021/07/02 01:09:09;;;;;;;7.15;6.40;;;;;;;;;;4925122;28;20063;-83
2021/07/02 01:11:36;;;;;;;6.50;5.90;;;;;;;;;;4927978;29;20082;-81
2021/07/02 01:14:02;;;;;;;7.05;5.80;;;;;;;;;;4925008;29;20459;-81
2021/07/02 01:16:28;;;;;;;7.43;6.25;;;;;;;;;;4926054;28;20060;-83
2021/07/02 01:18:55;;;;;;;6.82;6.22;;;;;;;;;;4921236;28;20070;-82
2021/07/02 01:21:21;;;;;;;6.55;5.95;;;;;;;;;;4927496;29;20515;-82
2021/07/02 01:23:48;;;;;;;6.30;5.68;;;;;;;;;;4923967;29;20074;-82
2021/07/02 01:26:15;;;;;;;6.38;5.47;;;;;;;;;;4928259;28;20059;-82
2021/07/02 01:28:41;;;;;;;6.43;5.82;;;;;;;;;;4928464;29;20510;-82
2021/07/02 01:31:08;;;;;;;7.40;6.00;;;;;;;;;;4926779;28;20071;-81
2021/07/02 01:33:34;;;;;;;7.38;6.68;;;;;;;;;;4928915;29;20060;-81
2021/07/02 01:36:08;;;;;;;6.82;6.13;;;;;;;;;;4926843;28;20046;-80
2021/07/02 01:38:35;;;;;;;6.95;6.25;;;;;;;;;;4926451;28;20074;-79
2021/07/02 01:41:01;;;;;;;7.13;6.20;;;;;;;;;;4926612;28;20055;-80
2021/07/02 01:43:28;;;;;;;7.15;6.22;;;;;;;;;;4927648;28;20063;-79
2021/07/02 01:45:54;;;;;;;7.38;6.78;;;;;;;;;;4923289;28;20162;-79
2021/07/02 01:48:21;;;;;;;7.07;6.38;;;;;;;;;;4930502;28;20170;-79
2021/07/02 01:50:48;;;;;;;7.13;6.53;;;;;;;;;;4932520;28;20071;-80
2021/07/02 01:53:14;;;;;;;8.35;6.32;;;;;;;;;;4925105;29;20507;-80
2021/07/02 01:55:41;;;;;;;6.82;6.20;;;;;;;;;;4921305;29;20043;-79
2021/07/02 01:58:07;;;;;;;7.63;6.40;;;;;;;;;;4924101;28;20066;-79
2021/07/02 02:00:33;;;;;;;6.68;6.07;;;;;;;;;;4928632;28;20071;-79
2021/07/02 02:03:00;;;;;;;7.80;6.45;;;;;;;;;;4927709;28;20055;-80
2021/07/02 02:05:26;;;;;;;7.32;6.43;;;;;;;;;;4928521;29;20074;-80
2021/07/02 02:07:53;;;;;;;7.43;6.47;;;;;;;;;;4924979;29;20550;-79
2021/07/02 02:10:19;;;;;;;8.82;6.88;;;;;;;;;;4931706;29;20110;-79
2021/07/02 02:12:46;;;;;;;7.18;6.47;;;;;;;;;;4930388;28;20078;-79
2021/07/02 02:15:13;;;;;;;9.13;6.32;;;;;;;;;;4927985;28;20134;-80
2021/07/02 02:17:40;;;;;;;7.28;6.63;;;;;;;;;;4924194;29;20060;-79
2021/07/02 02:20:07;;;;;;;8.73;6.70;;;;;;;;;;4932899;28;20055;-80
2021/07/02 02:22:34;;;;;;;7.13;6.43;;;;;;;;;;4925688;29;20079;-79
2021/07/02 02:25:00;;;;;;;7.35;6.63;;;;;;;;;;4930650;28;20079;-81
2021/07/02 02:27:27;;;;;;;7.60;6.43;;;;;;;;;;4931812;29;20183;-80
2021/07/02 02:29:53;;;;;;;7.15;6.45;;;;;;;;;;4930827;28;20066;-80
2021/07/02 02:32:20;;;;;;;7.45;6.75;;;;;;;;;;4931300;29;20107;-80
2021/07/02 02:34:46;;;;;;;7.20;6.50;;;;;;;;;;4921030;29;20081;-80
2021/07/02 02:37:13;;;;;;;6.90;6.22;;;;;;;;;;4924753;28;20539;-80
2021/07/02 02:39:39;;;;;;;7.22;6.55;;;;;;;;;;4923878;28;20067;-79
2021/07/02 02:42:06;;;;;;;8.30;6.43;;;;;;;;;;4928464;29;20063;-80
2021/07/02 02:44:33;;;;;;;7.43;6.72;;;;;;;;;;4931340;28;20075;-81
2021/07/02 02:46:59;;;;;;;7.63;6.82;;;;;;;;;;4931543;28;23144;-80
2021/07/02 02:49:26;;;;;;;7.32;6.63;;;;;;;;;;4930932;29;20066;-80
2021/07/02 02:51:52;;;;;;;8.52;7.25;;;;;;;;;;4931570;28;20547;-80
2021/07/02 02:54:19;;;;;;;7.72;6.95;;;;;;;;;;4931060;28;20059;-80
2021/07/02 02:57:04;;;;;;;8.05;7.22;;;;;;;;;;4929140;28;20063;-80
2021/07/02 02:59:35;;;;;;;7.50;6.80;;;;;;;;;;4929798;29;20067;-81
2021/07/02 03:02:02;;;;;;;7.80;6.95;;;;;;;;;;4928821;29;20059;-80
2021/07/02 03:04:28;;;;;;;8.18;7.30;;;;;;;;;;4931404;28;20067;-80
2021/07/02 03:06:54;;;;;;;8.32;7.53;;;;;;;;;;4941395;28;20055;-79
2021/07/02 03:09:22;;;;;;;8.43;7.25;;;;;;;;;;4926812;28;20551;-80
2021/07/02 03:11:51;;;;;;;8.02;7.22;;;;;;;;;;4932269;28;20502;-80
2021/07/02 03:14:21;;;;;;;7.70;7.00;;;;;;;;;;4932925;28;20578;-80
2021/07/02 03:16:49;;;;;;;8.20;7.40;;;;;;;;;;4932497;28;20051;-81
2021/07/02 03:19:15;;;;;;;8.18;7.38;;;;;;;;;;4936469;28;20059;-80
2021/07/02 03:21:42;;;;;;;8.02;7.22;;;;;;;;;;4933178;28;20587;-78
2021/07/02 03:24:09;;;;;;;8.55;7.60;;;;;;;;;;4931567;29;20122;-79
2021/07/02 03:26:35;;;;;;;8.40;7.60;;;;;;;;;;4924866;29;20170;-81
2021/07/02 03:29:02;;;;;;;7.25;6.55;;;;;;;;;;4928952;28;20127;-80
2021/07/02 03:31:28;;;;;;;8.23;7.32;;;;;;;;;;4926741;28;20055;-80
2021/07/02 03:33:55;;;;;;;8.40;7.45;;;;;;;;;;4930469;28;20074;-80
2021/07/02 03:36:21;;;;;;;8.88;7.97;;;;;;;;;;4930248;29;20521;-80
2021/07/02 03:38:47;;;;;;;7.75;7.05;;;;;;;;;;4928264;28;20064;-79
2021/07/02 03:41:14;;;;;;;8.43;7.63;;;;;;;;;;4929931;28;20518;-80
2021/07/02 03:43:40;;;;;;;8.77;7.78;;;;;;;;;;4929850;28;20040;-80
2021/07/02 03:46:07;;;;;;;7.60;6.90;;;;;;;;;;4931357;28;20067;-80
2021/07/02 03:48:33;;;;;;;7.72;7.03;;;;;;;;;;4930581;29;20117;-79
2021/07/02 03:50:59;;;;;;;8.10;7.30;;;;;;;;;;4927252;28;20060;-81
2021/07/02 03:53:26;;;;;;;8.38;7.50;;;;;;;;;;4930646;28;20055;-81
2021/07/02 03:55:52;;;;;;;10.50;7.95;;;;;;;;;;4930757;28;20055;-79
2021/07/02 03:58:19;;;;;;;7.72;7.03;;;;;;;;;;4929847;28;20048;-80
2021/07/02 04:00:45;;;;;;;8.70;7.63;;;;;;;;;;4929492;28;20469;-81
2021/07/02 04:03:13;;;;;;;8.80;7.90;;;;;;;;;;4929287;28;20075;-81
2021/07/02 04:05:43;;;;;;;8.77;7.93;;;;;;;;;;4920151;28;20147;-79
2021/07/02 04:08:10;;;;;;;8.93;7.60;;;;;;;;;;4925290;28;20067;-80
2021/07/02 04:10:36;;;;;;;7.93;7.13;;;;;;;;;;4927495;28;20095;-80
2021/07/02 04:13:03;;;;;;;8.45;7.65;;;;;;;;;;4927797;29;20051;-80
2021/07/02 04:15:29;;;;;;;8.48;7.68;;;;;;;;;;4929166;28;20063;-80
2021/07/02 04:17:56;;;;;;;8.93;7.75;;;;;;;;;;4930033;28;20135;-80
2021/07/02 04:20:22;;;;;;;8.25;7.55;;;;;;;;;;4918658;28;20072;-80
2021/07/02 04:22:49;;;;;;;8.77;7.75;;;;;;;;;;4925024;28;20056;-80
2021/07/02 04:25:15;;;;;;;8.32;7.50;;;;;;;;;;4930254;28;20074;-79
2021/07/02 04:27:43;;;;;;;7.43;6.72;;;;;;;;;;4928751;28;20024;-78
2021/07/02 04:30:10;;;;;;;8.65;7.85;;;;;;;;;;4930931;28;20125;-80
2021/07/02 04:32:37;;;;;;;8.88;7.47;;;;;;;;;;4927849;28;20590;-80
2021/07/02 04:35:04;;;;;;;8.32;7.53;;;;;;;;;;4928620;28;20067;-80
2021/07/02 04:37:30;;;;;;;8.60;7.70;;;;;;;;;;4935293;28;20067;-80
2021/07/02 04:40:00;;;;;;;8.38;7.53;;;;;;;;;;4929776;29;20074;-79
2021/07/02 04:42:26;;;;;;;8.10;6.93;;;;;;;;;;4929538;28;20065;-80
2021/07/02 04:44:53;;;;;;;8.65;7.72;;;;;;;;;;4929226;28;20071;-79
2021/07/02 04:47:19;;;;;;;9.05;8.15;;;;;;;;;;4926882;29;20066;-80
2021/07/02 04:49:45;;;;;;;8.40;7.57;;;;;;;;;;4929027;28;20063;-81
2021/07/02 04:52:12;;;;;;;8.30;7.50;;;;;;;;;;4928737;29;20484;-80
2021/07/02 04:54:38;;;;;;;10.20;7.75;;;;;;;;;;4930513;28;20179;-81
2021/07/02 04:57:05;;;;;;;8.13;7.32;;;;;;;;;;4928333;28;20516;-80
2021/07/02 04:59:37;;;;;;;7.88;7.05;;;;;;;;;;4925491;29;20059;-81
2021/07/02 05:02:06;;;;;;;8.80;7.90;;;;;;;;;;4929399;29;20063;-81
2021/07/02 05:04:34;;;;;;;9.23;8.27;;;;;;;;;;4928089;29;20143;-80
2021/07/02 05:07:00;;;;;;;9.73;7.63;;;;;;;;;;4921837;29;20107;-80
2021/07/02 05:09:27;;;;;;;8.98;8.07;;;;;;;;;;4926908;28;20220;-80
2021/07/02 05:11:53;;;;;;;8.25;7.45;;;;;;;;;;4927388;29;20079;-81
2021/07/02 05:14:19;;;;;;;9.52;8.63;;;;;;;;;;4927163;28;20067;-83
2021/07/02 05:16:46;;;;;;;11.88;8.27;;;;;;;;;;4918837;29;20573;-82
2021/07/02 05:19:12;;;;;;;8.98;8.05;;;;;;;;;;4928173;28;20059;-83
2021/07/02 05:21:38;;;;;;;9.15;8.20;;;;;;;;;;4928152;28;20067;-82
2021/07/02 05:24:05;;;;;;;8.30;7.43;;;;;;;;;;4926552;28;23443;-83
2021/07/02 05:26:31;;;;;;;8.88;8.00;;;;;;;;;;4928414;29;20059;-82
2021/07/02 05:28:58;;;;;;;9.18;8.27;;;;;;;;;;4927241;28;20074;-82
2021/07/02 05:31:24;;;;;;;10.43;8.02;;;;;;;;;;4928674;29;20066;-82
2021/07/02 05:33:51;;;;;;;8.63;7.72;;;;;;;;;;4900711;29;20067;-82
2021/07/02 05:36:17;;;;;;;8.10;7.22;;;;;;;;;;4926011;28;20080;-80
2021/07/02 05:38:44;;;;;;;8.55;7.72;;;;;;;;;;4922623;29;20063;-80
2021/07/02 05:41:12;;;;;;;7.63;6.93;;;;;;;;;;4908922;29;20152;-80
2021/07/02 05:43:38;;;;;;;7.75;6.40;;;;;;;;;;4926969;29;20511;-81
2021/07/02 05:46:06;;;;;;;6.72;6.05;;;;;;;;;;4924046;29;20415;-80
2021/07/02 05:48:33;;;;;;;7.70;6.90;;;;;;;;;;4928179;28;20070;-81
2021/07/02 05:51:00;;;;;;;7.00;6.40;;;;;;;;;;4924707;28;20415;-85
2021/07/02 05:53:26;;;;;;;7.32;6.72;;;;;;;;;;4924635;28;20059;-80
2021/07/02 05:55:53;;;;;;;7.32;6.63;;;;;;;;;;4926275;28;20677;-80
2021/07/02 05:58:19;;;;;;;7.88;6.70;;;;;;;;;;4928006;28;20974;-80
2021/07/02 06:00:46;;;;;;;7.60;6.90;;;;;;;;;;4930708;29;20039;-80
2021/07/02 06:03:12;;;;;;;8.30;7.40;;;;;;;;;;4929278;28;20067;-79
2021/07/02 06:05:38;;;;;;;8.00;7.13;;;;;;;;;;4926976;28;20094;-80
2021/07/02 06:08:05;;;;;;;7.60;6.82;;;;;;;;;;4929584;28;20035;-80
2021/07/02 06:10:31;;;;;;;6.82;6.22;;;;;;;;;;4928970;29;20503;-80
2021/07/02 06:12:58;;;;;;;7.95;6.30;;;;;;;;;;4925901;28;20071;-81
2021/07/02 06:15:24;;;;;;;7.95;7.13;;;;;;;;;;4929240;28;20063;-83
2021/07/02 06:17:52;;;;;;;13.93;8.60;;;;;;;;;;4921821;29;20070;-81
2021/07/02 06:20:22;;;;;;;9.45;8.35;;;;;;;;;;4928165;28;20032;-83
2021/07/02 06:22:49;;;;;;;9.00;8.10;;;;;;;;;;4929175;28;20044;-82
2021/07/02 06:25:15;;;;;;;9.07;8.13;;;;;;;;;;4929246;29;20060;-83
2021/07/02 06:27:42;;;;;;;9.45;8.10;;;;;;;;;;4932448;28;20043;-83
2021/07/02 06:30:08;;;;;;;11.07;8.88;;;;;;;;;;4931664;28;20051;-82
2021/07/02 06:32:35;;;;;;;8.38;7.47;;;;;;;;;;4929842;29;20071;-83
2021/07/02 06:35:01;;;;;;;8.88;7.97;;;;;;;;;;4928908;28;20445;-82
2021/07/02 06:37:28;;;;;;;8.70;7.80;;;;;;;;;;4928646;28;20060;-82
2021/07/02 06:39:54;;;;;;;8.48;7.57;;;;;;;;;;4922579;28;20109;-82
2021/07/02 06:42:21;;;;;;;8.52;7.63;;;;;;;;;;4926809;28;20035;-82
2021/07/02 06:44:47;;;;;;;9.13;7.55;;;;;;;;;;4929080;28;20071;-81
2021/07/02 06:47:13;;;;;;;8.35;7.22;;;;;;;;;;4927178;29;20133;-80
2021/07/02 06:49:40;;;;;;;7.90;7.18;;;;;;;;;;4927831;28;20063;-81
2021/07/02 06:52:07;;;;;;;7.35;6.75;;;;;;;;;;4929717;28;20121;-80
2021/07/02 06:54:34;;;;;;;7.75;6.75;;;;;;;;;;4930727;28;20075;-78
2021/07/02 06:57:16;;;;;;;7.95;7.18;;;;;;;;;;4929601;28;20095;-81
2021/07/02 06:59:43;;;;;;;7.00;6.30;;;;;;;;;;4930743;28;20054;-80
2021/07/02 07:02:10;;;;;;;7.13;6.50;;;;;;;;;;4931115;28;20036;-81
2021/07/02 07:04:37;;;;;;;7.07;6.38;;;;;;;;;;4930761;29;20063;-81
2021/07/02 07:07:04;;;;;;;7.13;6.53;;;;;;;;;;4931781;28;20086;-81
2021/07/02 07:09:31;;;;;;;8.13;6.35;;;;;;;;;;4930278;28;20071;-80
2021/07/02 07:11:58;;;;;;;8.25;6.97;;;;;;;;;;4933721;28;20051;-81
2021/07/02 07:14:27;;;;;;;7.50;6.80;;;;;;;;;;4933068;29;20578;-79
2021/07/02 07:16:54;;;;;;;6.85;6.15;;;;;;;;;;4932265;28;20087;-80
2021/07/02 07:19:25;;;;;;;7.65;6.20;;;;;;;;;;4930674;29;20104;-80
2021/07/02 07:21:51;;;;;;;8.27;7.28;;;;;;;;;;4929664;28;20059;-79
2021/07/02 07:24:17;;;;;;;6.30;5.70;;;;;;;;;;4931395;29;20102;-81
2021/07/02 07:26:44;;;;;;;6.32;5.72;;;;;;;;;;4931886;29;20036;-81
2021/07/02 07:29:10;;;;;;;6.60;5.97;;;;;;;;;;4930281;28;20456;-81
2021/07/02 07:31:37;;;;;;;7.18;6.45;;;;;;;;;;4930477;29;20035;-80
2021/07/02 07:34:04;;;;;;;7.97;5.80;;;;;;;;;;4929829;28;20067;-79
2021/07/02 07:36:31;;;;;;;6.47;5.88;;;;;;;;;;4925163;29;20062;-80
2021/07/02 07:38:57;;;;;;;6.78;6.15;;;;;;;;;;4934753;29;20065;-79
2021/07/02 07:41:24;;;;;;;5.10;4.57;;;;;;;;;;4932594;28;20642;-80
2021/07/02 07:43:51;;;;;;;7.57;6.60;;;;;;;;;;4934291;29;20071;-79
2021/07/02 07:46:18;;;;;;;6.43;5.35;;;;;;;;;;4928227;29;20079;-81
2021/07/02 07:48:44;;;;;;;6.13;5.53;;;;;;;;;;4925530;28;20059;-80
2021/07/02 07:53:53;;;;;;;7.30;6.60;;;;;;;;;;4925387;28;20063;-80
2021/07/02 07:56:19;;;;;;;6.50;5.90;;;;;;;;;;4930289;28;20091;-81
2021/07/02 07:58:46;;;;;;;7.88;6.43;;;;;;;;;;4928833;28;20335;-81
2021/07/02 08:01:12;;;;;;;8.57;6.00;;;;;;;;;;4931609;28;20441;-81
2021/07/02 08:03:38;;;;;;;5.18;4.68;;;;;;;;;;4930392;28;20134;-81
2021/07/02 08:06:05;;;;;;;6.20;4.57;;;;;;;;;;4929260;28;21224;-81
2021/07/02 08:08:31;;;;;;;6.05;4.57;;;;;;;;;;4928051;28;20075;-83
2021/07/02 08:10:58;;;;;;;5.22;4.10;;;;;;;;;;4928661;28;20060;-81
2021/07/02 08:13:28;;;;;;;6.85;4.85;;;;;;;;;;4928663;28;20071;-81
2021/07/02 08:15:54;;;;;;;5.10;4.60;;;;;;;;;;4929282;28;20055;-81
2021/07/02 08:18:22;;;;;;;5.80;5.20;;;;;;;;;;4924258;29;20072;-82
2021/07/02 08:20:48;;;;;;;5.28;4.35;;;;;;;;;;4928986;28;20153;-81
2021/07/02 08:23:15;;;;;;;5.85;3.65;;;;;;;;;;4929486;28;20060;-81
2021/07/02 08:25:41;;;;;;;4.35;3.47;;;;;;;;;;4925067;28;20073;-80
2021/07/02 08:30:53;;;;;;;5.00;3.72;;;;;;;;;;4926422;28;20126;-80
2021/07/02 08:33:21;;;;;;;2.80;2.50;;;;;;;;;;4934144;28;20061;-82
2021/07/02 08:35:47;;;;;;;4.80;4.30;;;;;;;;;;4929123;28;20086;-81
2021/07/02 08:38:14;;;;;;;4.80;3.60;;;;;;;;;;4932133;28;20107;-80
2021/07/02 08:40:41;;;;;;;4.25;2.90;;;;;;;;;;4926832;28;20047;-79
2021/07/02 08:43:08;;;;;;;3.80;3.05;;;;;;;;;;4931272;28;20094;-81
2021/07/02 08:45:36;;;;;;;5.10;3.45;;;;;;;;;;4929855;28;20118;-79
2021/07/02 08:48:04;;;;;;;5.55;3.55;;;;;;;;;;4930443;28;20055;-80
2021/07/02 08:50:30;;;;;;;4.90;3.78;;;;;;;;;;4931664;28;20078;-80
2021/07/02 08:52:57;;;;;;;3.30;3.00;;;;;;;;;;4929021;28;20031;-80
2021/07/02 08:55:23;;;;;;;3.50;2.85;;;;;;;;;;4927098;29;20122;-79
2021/07/02 08:57:50;;;;;;;2.90;2.53;;;;;;;;;;4923794;28;20044;-79
2021/07/02 09:00:16;;;;;;;3.45;2.92;;;;;;;;;;4928535;29;20048;-80
2021/07/02 09:02:43;;;;;;;4.97;3.15;;;;;;;;;;4929448;29;20067;-80
2021/07/02 09:05:25;;;;;;;2.85;2.28;;;;;;;;;;4930197;28;20126;-79
2021/07/02 09:07:52;;;;;;;3.67;3.10;;;;;;;;;;4927807;29;20079;-80
2021/07/02 09:10:18;;;;;;;5.85;3.38;;;;;;;;;;4929511;28;20130;-80
2021/07/02 09:12:52;;;;;;;3.58;2.63;;;;;;;;;;4928166;28;20078;-83
2021/07/02 09:15:18;;;;;;;4.28;3.00;;;;;;;;;;4926887;28;20067;-80
2021/07/02 09:17:51;;;;;;;4.03;3.15;;;;;;;;;;4924933;29;20059;-79
2021/07/02 09:20:23;;;;;;;3.50;2.97;;;;;;;;;;4926647;29;20043;-80
2021/07/02 09:22:52;;;;;;;3.72;3.13;;;;;;;;;;4941366;28;20055;-80
2021/07/02 09:25:29;;;;;;;4.65;3.13;;;;;;;;;;4928357;28;20095;-80
2021/07/02 09:27:56;;;;;;;2.88;2.33;;;;;;;;;;4935247;28;20039;-84
2021/07/02 09:30:32;;;;;;;3.67;2.53;;;;;;;;;;4931442;29;20592;-83
2021/07/02 09:33:00;;;;;;;4.07;2.80;;;;;;;;;;4925626;29;20160;-82
2021/07/02 09:35:35;;;;;;;5.18;3.30;;;;;;;;;;4925704;29;20110;-80
2021/07/02 09:38:02;;;;;;;3.67;2.58;;;;;;;;;;4916030;28;20142;-83
2021/07/02 09:40:34;;;;;;;4.80;3.13;;;;;;;;;;4927961;28;20066;-79
2021/07/02 09:43:03;;;;;;;3.47;2.55;;;;;;;;;;4896111;28;20049;-81
2021/07/02 09:45:43;;;;;;;6.03;3.17;;;;;;;;;;4929798;29;20054;-84
2021/07/02 09:51:48;;;;;;;3.95;2.65;;;;;;;;;;5203743;23;20073;-81
2021/07/02 09:54:15;;;;;;;5.40;3.20;;;;;;;;;;4961214;28;20427;-81
2021/07/02 09:56:44;;;;;;;4.53;2.80;;;;;;;;;;4963790;28;20027;-83
2021/07/02 09:59:19;;;;;;;4.15;2.65;;;;;;;;;;4963268;28;20110;-82
2021/07/02 10:01:46;;;;;;;2.92;2.58;;;;;;;;;;4967939;28;20039;-82
2021/07/02 10:04:12;;;;;;;3.53;2.97;;;;;;;;;;4971266;28;20438;-83
2021/07/02 10:06:39;;;;;;;3.80;3.00;;;;;;;;;;4968641;28;20099;-83
2021/07/02 10:09:06;;;;;;;3.45;2.42;;;;;;;;;;4968188;28;20566;-83
2021/07/02 10:11:33;;;;;;;2.80;2.50;;;;;;;;;;4952804;28;20070;-82
2021/07/02 10:14:00;;;;;;;2.72;2.42;;;;;;;;;;4963871;28;20101;-80
2021/07/02 10:16:30;;;;;;;4.15;2.30;;;;;;;;;;4968309;28;20121;-80
2021/07/02 10:19:01;;;;;;;3.65;2.70;;;;;;;;;;4966517;28;20129;-82
2021/07/02 10:21:29;;;;;;;3.65;2.65;;;;;;;;;;4968115;28;20031;-81
2021/07/02 10:23:56;;;;;;;2.72;2.42;;;;;;;;;;4967553;28;20031;-82
2021/07/02 10:26:25;;;;;;;3.08;2.78;;;;;;;;;;4970300;28;20090;-82
2021/07/02 10:28:56;;;;;;;3.50;2.45;;;;;;;;;;4961994;28;20046;-80
2021/07/02 10:31:22;;;;;;;3.58;2.70;;;;;;;;;;4968341;28;20034;-85
2021/07/02 10:33:50;;;;;;;3.38;2.25;;;;;;;;;;4968501;28;20046;-80
2021/07/02 10:36:17;;;;;;;3.03;2.72;;;;;;;;;;4970580;28;20495;-79
2021/07/02 10:38:48;;;;;;;3.03;2.60;;;;;;;;;;4969135;28;20078;-79
2021/07/02 10:41:22;;;;;;;2.90;2.30;;;;;;;;;;4968164;28;20860;-83
2021/07/02 10:44:05;;;;;;;4.32;2.67;;;;;;;;;;4971558;28;20070;-86
2021/07/02 10:46:36;;;;;;;4.38;2.20;;;;;;;;;;4970334;28;20054;-86
2021/07/02 10:49:06;;;;;;;3.72;2.10;;;;;;;;;;4957527;28;20184;-86
2021/07/02 10:51:36;;;;;;;3.30;2.67;;;;;;;;;;4944386;28;20129;-86
2021/07/02 10:54:15;;;;;;;3.65;2.95;;;;;;;;;;4942285;28;20056;-86
2021/07/02 10:56:50;;;;;;;2.50;2.15;;;;;;;;;;4949863;28;20384;-87
2021/07/02 10:59:17;;;;;;;3.83;2.67;;;;;;;;;;4952906;28;20055;-86
2021/07/02 11:02:03;;;;;;;4.35;2.63;;;;;;;;;;4952747;28;20613;-86
2021/07/02 11:04:33;;;;;;;2.88;2.53;;;;;;;;;;4952625;28;20093;-84
2021/07/02 11:07:00;;;;;;;3.00;2.50;;;;;;;;;;4949236;28;20047;-83
2021/07/02 11:09:44;;;;;;;2.85;2.55;;;;;;;;;;4948974;28;20050;-84
2021/07/02 11:12:12;;;;;;;3.42;3.05;;;;;;;;;;4940748;28;20525;-84
2021/07/02 11:14:54;;;;;;;3.78;2.80;;;;;;;;;;4946706;28;20121;-84
2021/07/02 11:17:24;;;;;;;2.78;2.50;;;;;;;;;;4942006;28;21319;-84
2021/07/02 11:20:09;;;;;;;2.40;1.90;;;;;;;;;;4950666;28;20062;-80
2021/07/02 11:22:45;;;;;;;3.92;2.95;;;;;;;;;;4958731;28;20036;-80
2021/07/02 11:27:58;;;;;;;4.18;2.90;;;;;;;;;;4944742;28;20071;-82
2021/07/02 11:30:36;;;;;;;3.42;2.70;;;;;;;;;;4942482;28;20098;-82
2021/07/02 11:33:02;;;;;;;2.85;1.75;;;;;;;;;;4944515;28;20062;-82
2021/07/02 11:35:30;;;;;;;3.60;2.92;;;;;;;;;;4945010;28;20035;-81
2021/07/02 11:38:06;;;;;;;4.00;2.60;;;;;;;;;;4943727;28;20082;-82
2021/07/02 11:40:33;;;;;;;2.13;1.90;;;;;;;;;;4943504;28;20141;-82
2021/07/02 11:43:01;;;;;;;4.43;2.50;;;;;;;;;;4936898;28;20043;-82
2021/07/02 11:45:47;;;;;;;2.40;2.17;;;;;;;;;;4941292;28;20083;-83
2021/07/02 11:48:19;;;;;;;3.00;2.70;;;;;;;;;;4937299;28;20403;-83
2021/07/02 11:50:47;;;;;;;2.95;2.60;;;;;;;;;;4940073;28;20063;-86
2021/07/02 11:53:46;;;;;;;2.58;2.30;;;;;;;;;;4945729;28;20511;-86
2021/07/02 11:56:12;;;;;;;3.42;2.70;;;;;;;;;;4927206;28;20196;-89
2021/07/02 11:58:40;;;;;;;3.33;2.50;;;;;;;;;;4944024;28;20063;-85
2021/07/02 12:01:15;;;;;;;3.58;2.30;;;;;;;;;;4945097;28;20290;-91
2021/07/02 12:03:50;;;;;;;2.30;1.90;;;;;;;;;;4943583;28;20031;-81
2021/07/02 12:06:24;;;;;;;4.65;2.47;;;;;;;;;;4944090;28;20103;-87
2021/07/02 12:08:52;;;;;;;3.42;2.50;;;;;;;;;;4947515;28;20083;-86
2021/07/02 12:11:26;;;;;;;3.53;2.63;;;;;;;;;;4937262;28;20118;-87
2021/07/02 12:13:52;;;;;;;3.42;2.35;;;;;;;;;;4942434;28;20058;-86
2021/07/02 12:16:19;;;;;;;3.85;2.38;;;;;;;;;;4937896;28;20160;-85
2021/07/02 12:18:52;;;;;;;3.35;2.28;;;;;;;;;;4936400;28;20071;-86
2021/07/02 12:21:19;;;;;;;3.15;2.42;;;;;;;;;;4942434;28;20079;-85
2021/07/02 12:23:46;;;;;;;7.40;2.70;;;;;;;;;;4941010;28;20544;-85
2021/07/02 12:26:26;;;;;;;2.67;2.33;;;;;;;;;;4940829;28;20063;-87
2021/07/02 12:28:58;;;;;;;3.42;2.72;;;;;;;;;;4940586;28;20500;-88
2021/07/02 12:31:43;;;;;;;3.22;2.38;;;;;;;;;;4939011;28;20034;-86
2021/07/02 12:34:20;;;;;;;3.17;2.45;;;;;;;;;;4940537;28;21252;-86
2021/07/02 12:36:54;;;;;;;3.40;2.40;;;;;;;;;;4935358;28;20023;-84
2021/07/02 12:39:23;;;;;;;2.88;2.50;;;;;;;;;;4948601;28;20555;-85
2021/07/02 12:41:54;;;;;;;2.42;2.00;;;;;;;;;;4944785;28;20070;-85
2021/07/02 12:44:21;;;;;;;3.42;2.17;;;;;;;;;;4951749;28;20084;-84
2021/07/02 12:46:48;;;;;;;3.38;2.55;;;;;;;;;;4953503;28;20570;-84
2021/07/02 12:49:21;;;;;;;3.13;2.50;;;;;;;;;;4948308;28;20113;-85
2021/07/02 12:55:04;;;;;;;3.13;2.28;;;;;;;;;;4932448;28;20063;-85
2021/07/02 12:57:33;;;;;;;3.03;2.60;;;;;;;;;;4941173;28;20071;-87
2021/07/02 13:00:02;;;;;;;3.05;2.13;;;;;;;;;;4940160;28;20550;-84
2021/07/02 13:02:33;;;;;;;3.45;2.40;;;;;;;;;;4948010;28;20090;-81
2021/07/02 13:05:03;;;;;;;3.40;2.63;;;;;;;;;;4949229;28;20048;-81
2021/07/02 13:07:45;;;;;;;2.55;2.20;;;;;;;;;;4948582;28;20059;-80
2021/07/02 13:10:12;;;;;;;2.90;2.30;;;;;;;;;;4947857;28;21267;-88
2021/07/02 13:12:39;;;;;;;6.68;2.55;;;;;;;;;;4936194;28;20113;-85
2021/07/02 13:15:08;;;;;;;3.25;1.98;;;;;;;;;;4948387;28;20480;-85
2021/07/02 13:17:45;;;;;;;2.70;2.30;;;;;;;;;;4948177;28;20735;-85
2021/07/02 13:20:13;;;;;;;2.97;2.10;;;;;;;;;;4943813;28;21393;-83
2021/07/02 13:22:39;;;;;;;3.78;2.20;;;;;;;;;;4945078;28;20130;-82
2021/07/02 13:25:11;;;;;;;2.35;2.00;;;;;;;;;;4943978;28;20106;-82
2021/07/02 13:27:38;;;;;;;3.42;2.10;;;;;;;;;;4941273;28;20051;-80
2021/07/02 13:30:08;;;;;;;3.90;2.15;;;;;;;;;;4939374;28;20114;-81
2021/07/02 13:32:35;;;;;;;2.40;1.70;;;;;;;;;;4951170;28;20043;-83
2021/07/02 13:35:02;;;;;;;3.42;2.40;;;;;;;;;;4940742;28;20062;-82
2021/07/02 13:37:29;;;;;;;2.70;2.28;;;;;;;;;;4935577;28;20039;-83
2021/07/02 13:39:59;;;;;;;3.25;2.25;;;;;;;;;;4937965;28;20035;-81
2021/07/02 13:42:26;;;;;;;2.75;2.15;;;;;;;;;;4940258;28;20052;-83
2021/07/02 13:44:53;;;;;;;3.10;2.58;;;;;;;;;;4939148;28;20132;-82
2021/07/02 13:47:29;;;;;;;2.80;2.60;;;;;;;;;;4935678;28;20047;-82
2021/07/02 13:49:56;;;;;;;3.50;2.45;;;;;;;;;;4925693;28;20055;-83
2021/07/02 13:52:23;;;;;;;3.40;2.20;;;;;;;;;;4951984;28;20127;-83
2021/07/02 13:54:49;;;;;;;3.25;2.30;;;;;;;;;;4934930;28;20115;-82
2021/07/02 13:57:16;;;;;;;3.70;2.40;;;;;;;;;;4940850;28;20066;-81
2021/07/02 13:59:42;;;;;;;3.50;2.30;;;;;;;;;;4953597;28;20043;-83
2021/07/02 14:02:12;;;;;;;2.75;2.03;;;;;;;;;;4940273;28;20102;-84
2021/07/02 14:04:38;;;;;;;3.75;2.30;;;;;;;;;;4948509;28;20097;-84
2021/07/02 14:07:05;;;;;;;2.13;1.67;;;;;;;;;;4950694;28;20075;-84
2021/07/02 14:09:31;;;;;;;4.80;2.40;;;;;;;;;;4951916;28;20067;-82
2021/07/02 14:11:58;;;;;;;3.58;2.20;;;;;;;;;;4950854;28;20157;-85
2021/07/02 14:14:24;;;;;;;2.70;2.25;;;;;;;;;;4944615;28;20070;-83
2021/07/02 14:16:50;;;;;;;4.43;2.40;;;;;;;;;;4946247;28;20063;-81
2021/07/02 14:19:17;;;;;;;3.67;2.15;;;;;;;;;;4944893;28;20073;-83
2021/07/02 14:21:43;;;;;;;3.47;2.00;;;;;;;;;;4945421;28;20055;-84
2021/07/02 14:24:11;;;;;;;3.50;2.05;;;;;;;;;;4949879;28;20074;-83
2021/07/02 14:26:38;;;;;;;4.10;2.08;;;;;;;;;;4947894;28;20074;-80
2021/07/02 14:29:05;;;;;;;4.47;2.40;;;;;;;;;;4945299;28;20032;-79
2021/07/02 14:31:32;;;;;;;3.92;2.60;;;;;;;;;;4952588;28;20035;-91
2021/07/02 14:34:01;;;;;;;6.00;2.75;;;;;;;;;;4966803;28;20035;-92
2021/07/02 14:36:36;;;;;;;3.08;2.15;;;;;;;;;;4958455;28;20066;-90
2021/07/02 14:39:02;;;;;;;6.15;2.42;;;;;;;;;;4963957;28;20087;-90
2021/07/02 14:41:54;;;;;;;4.63;2.03;;;;;;;;;;4974701;28;20027;-89
2021/07/02 14:44:24;;;;;;;2.65;2.20;;;;;;;;;;4962072;28;21208;-90
2021/07/02 14:46:52;;;;;;;2.63;1.98;;;;;;;;;;4966016;28;20047;-88
2021/07/02 14:49:18;;;;;;;3.47;1.88;;;;;;;;;;4972316;28;20089;-88
2021/07/02 14:51:47;;;;;;;4.70;2.35;;;;;;;;;;4970002;28;20118;-88
2021/07/02 14:54:18;;;;;;;4.00;2.30;;;;;;;;;;4966922;28;20043;-89
2021/07/02 14:56:49;;;;;;;2.60;2.13;;;;;;;;;;4951678;28;20032;-89
2021/07/02 14:59:15;;;;;;;3.60;2.15;;;;;;;;;;4980125;28;20031;-90
2021/07/02 15:01:42;;;;;;;3.90;2.28;;;;;;;;;;4959509;28;20027;-80
2021/07/02 15:04:08;;;;;;;3.17;2.28;;;;;;;;;;4968680;28;20030;-89